createdAt,value
2019-04-25T00:00:43.165Z,12.22
2019-04-25T00:01:43.967Z,12.17
2019-04-25T00:02:43.977Z,12.20
2019-04-25T00:03:43.680Z,12.22
2019-04-25T00:04:43.456Z,12.17
2019-04-25T00:05:43.563Z,12.22
2019-04-25T00:06:43.873Z,12.24
2019-04-25T00:07:43.822Z,12.28
2019-04-25T00:08:44.026Z,12.15
2019-04-25T00:09:43.194Z,12.18
2019-04-25T00:10:43.816Z,12.18
2019-04-25T00:11:43.659Z,12.22
2019-04-25T00:12:43.569Z,12.20
2019-04-25T00:13:43.238Z,12.24
2019-04-25T00:14:42.695Z,12.28
2019-04-25T00:15:44.915Z,12.31
2019-04-25T00:16:43.803Z,12.35
2019-04-25T00:17:43.386Z,12.36
2019-04-25T00:18:43.035Z,12.29
2019-04-25T00:19:43.319Z,12.28
2019-04-25T00:20:43.544Z,12.20
2019-04-25T00:21:43.347Z,12.24
2019-04-25T00:22:43.548Z,12.32
2019-04-25T00:23:43.009Z,12.32
2019-04-25T00:24:43.238Z,12.29
2019-04-25T00:25:45.506Z,12.31
2019-04-25T00:26:44.014Z,12.32
2019-04-25T00:27:43.622Z,12.20
2019-04-25T00:28:44.188Z,12.20
2019-04-25T00:29:43.925Z,12.27
2019-04-25T00:30:43.495Z,12.25
2019-04-25T00:31:43.744Z,12.09
2019-04-25T00:32:44.070Z,12.18
2019-04-25T00:33:44.157Z,12.21
2019-04-25T00:34:43.586Z,12.10
2019-04-25T00:35:44.478Z,12.13
2019-04-25T00:36:43.513Z,12.17
2019-04-25T00:37:44.310Z,12.09
2019-04-25T00:38:45.465Z,12.06
2019-04-25T00:39:44.771Z,12.04
2019-04-25T00:40:43.497Z,12.04
2019-04-25T00:41:44.975Z,12.09
2019-04-25T00:42:43.586Z,12.17
2019-04-25T00:43:43.320Z,12.09
2019-04-25T00:44:44.534Z,12.18
2019-04-25T00:45:43.599Z,12.17
2019-04-25T00:46:46.396Z,12.12
2019-04-25T00:47:43.877Z,12.21
2019-04-25T00:48:43.134Z,12.09
2019-04-25T00:49:44.061Z,12.06
2019-04-25T00:50:43.264Z,12.12
2019-04-25T00:51:43.442Z,12.02
2019-04-25T00:52:43.520Z,12.03
2019-04-25T00:53:43.442Z,12.15
2019-04-25T00:54:50.498Z,12.04
2019-04-25T00:55:43.107Z,12.03
2019-04-25T00:56:45.794Z,12.02
2019-04-25T00:57:43.534Z,11.91
2019-04-25T00:58:43.283Z,11.90
2019-04-25T00:59:43.890Z,11.83
2019-04-25T01:00:43.286Z,11.90
2019-04-25T01:01:44.214Z,11.95
2019-04-25T01:02:43.182Z,11.91
2019-04-25T01:03:43.447Z,11.91
2019-04-25T01:04:43.022Z,11.86
2019-04-25T01:05:43.380Z,11.86
2019-04-25T01:06:42.102Z,11.87
2019-04-25T01:07:42.286Z,11.87
2019-04-25T01:08:42.126Z,11.83
2019-04-25T01:09:42.402Z,11.75
2019-04-25T01:10:42.082Z,11.88
2019-04-25T01:11:42.464Z,11.90
2019-04-25T01:12:42.035Z,11.81
2019-04-25T01:13:42.321Z,11.81
2019-04-25T01:14:42.133Z,11.84
2019-04-25T01:15:42.527Z,11.81
2019-04-25T01:16:42.015Z,11.94
2019-04-25T01:17:41.989Z,11.84
2019-04-25T01:18:43.555Z,11.81
2019-04-25T01:19:41.950Z,11.81
2019-04-25T01:20:43.436Z,11.75
2019-04-25T01:21:41.995Z,11.70
2019-04-25T01:22:41.934Z,11.70
2019-04-25T01:23:43.357Z,11.59
2019-04-25T01:24:41.897Z,11.59
2019-04-25T01:25:44.286Z,11.57
2019-04-25T01:26:41.886Z,11.57
2019-04-25T01:27:43.282Z,11.51
2019-04-25T01:28:41.850Z,11.55
2019-04-25T01:29:41.842Z,11.55
2019-04-25T01:30:41.860Z,11.55
2019-04-25T01:31:43.370Z,11.45
2019-04-25T01:32:44.626Z,11.52
2019-04-25T01:33:43.262Z,11.55
2019-04-25T01:34:41.799Z,11.57
2019-04-25T01:35:43.074Z,11.52
2019-04-25T01:36:41.770Z,11.52
2019-04-25T01:37:41.763Z,11.52
2019-04-25T01:38:43.299Z,11.54
2019-04-25T01:39:41.726Z,11.55
2019-04-25T01:40:43.810Z,11.62
2019-04-25T01:41:41.703Z,11.52
2019-04-25T01:42:41.712Z,11.51
2019-04-25T01:43:43.594Z,11.48
2019-04-25T01:44:41.670Z,11.50
2019-04-25T01:45:41.656Z,11.50
2019-04-25T01:46:41.647Z,11.48
2019-04-25T01:47:41.664Z,11.48
2019-04-25T01:48:43.260Z,11.47
2019-04-25T01:49:41.612Z,11.47
2019-04-25T01:50:43.629Z,11.40
2019-04-25T01:51:41.590Z,11.27
2019-04-25T01:52:43.334Z,11.18
2019-04-25T01:53:41.581Z,11.19
2019-04-25T01:54:41.569Z,11.19
2019-04-25T01:55:51.777Z,11.18
2019-04-25T01:56:44.179Z,11.10
2019-04-25T01:57:41.546Z,11.14
2019-04-25T01:58:41.506Z,11.15
2019-04-25T01:59:41.533Z,11.04
2019-04-25T02:00:43.098Z,11.05
2019-04-25T02:01:41.507Z,10.99
2019-04-25T02:02:41.487Z,11.04
2019-04-25T02:03:41.501Z,11.05
2019-04-25T02:04:41.464Z,11.00
2019-04-25T02:05:41.433Z,10.99
2019-04-25T02:06:41.447Z,10.92
2019-04-25T02:07:41.451Z,10.99
2019-04-25T02:08:41.418Z,10.97
2019-04-25T02:09:41.388Z,10.87
2019-04-25T02:10:41.384Z,10.92
2019-04-25T02:11:41.365Z,10.79
2019-04-25T02:12:41.414Z,10.87
2019-04-25T02:13:41.343Z,10.86
2019-04-25T02:14:41.377Z,10.69
2019-04-25T02:15:41.324Z,10.64
2019-04-25T02:16:41.310Z,10.75
2019-04-25T02:17:41.303Z,10.63
2019-04-25T02:18:41.301Z,10.64
2019-04-25T02:19:41.288Z,10.64
2019-04-25T02:20:41.287Z,10.69
2019-04-25T02:21:41.266Z,10.63
2019-04-25T02:22:41.259Z,10.64
2019-04-25T02:23:41.235Z,10.68
2019-04-25T02:24:41.219Z,10.56
2019-04-25T02:25:41.228Z,10.60
2019-04-25T02:26:41.202Z,10.61
2019-04-25T02:27:41.219Z,10.72
2019-04-25T02:28:41.191Z,10.63
2019-04-25T02:29:41.164Z,10.74
2019-04-25T02:30:41.164Z,10.76
2019-04-25T02:31:41.165Z,10.67
2019-04-25T02:32:41.171Z,10.75
2019-04-25T02:33:41.133Z,10.64
2019-04-25T02:34:41.109Z,10.54
2019-04-25T02:35:43.991Z,10.42
2019-04-25T02:36:46.447Z,10.46
2019-04-25T02:37:41.078Z,10.35
2019-04-25T02:38:41.068Z,10.41
2019-04-25T02:39:41.050Z,10.38
2019-04-25T02:40:41.042Z,10.34
2019-04-25T02:41:41.030Z,10.35
2019-04-25T02:42:41.032Z,10.35
2019-04-25T02:43:41.030Z,10.30
2019-04-25T02:44:41.020Z,10.33
2019-04-25T02:45:41.020Z,10.31
2019-04-25T02:46:41.017Z,10.35
2019-04-25T02:47:40.980Z,10.23
2019-04-25T02:48:40.950Z,10.31
2019-04-25T02:49:40.949Z,10.38
2019-04-25T02:50:40.925Z,10.38
2019-04-25T02:51:40.914Z,10.40
2019-04-25T02:52:40.918Z,10.33
2019-04-25T02:53:40.943Z,10.38
2019-04-25T02:54:40.879Z,10.34
2019-04-25T02:55:40.867Z,10.35
2019-04-25T02:56:40.859Z,10.26
2019-04-25T02:57:40.847Z,10.33
2019-04-25T02:58:40.873Z,10.31
2019-04-25T02:59:40.833Z,10.34
2019-04-25T03:00:54.949Z,10.28
2019-04-25T03:01:44.331Z,10.25
2019-04-25T03:02:40.797Z,10.33
2019-04-25T03:03:40.810Z,10.37
2019-04-25T03:04:40.829Z,10.42
2019-04-25T03:05:40.776Z,10.35
2019-04-25T03:06:40.748Z,10.35
2019-04-25T03:07:40.736Z,10.37
2019-04-25T03:08:40.782Z,10.42
2019-04-25T03:09:40.711Z,10.35
2019-04-25T03:10:40.755Z,10.38
2019-04-25T03:11:40.700Z,10.38
2019-04-25T03:12:40.685Z,10.41
2019-04-25T03:13:40.681Z,10.38
2019-04-25T03:14:40.655Z,10.37
2019-04-25T03:15:40.640Z,10.37
2019-04-25T03:16:40.669Z,10.37
2019-04-25T03:17:40.665Z,10.48
2019-04-25T03:18:40.620Z,10.42
2019-04-25T03:19:40.601Z,10.57
2019-04-25T03:20:40.603Z,10.57
2019-04-25T03:21:40.572Z,10.46
2019-04-25T03:22:40.584Z,10.49
2019-04-25T03:23:42.707Z,10.57
2019-04-25T03:24:40.556Z,10.38
2019-04-25T03:25:40.528Z,10.37
2019-04-25T03:26:40.833Z,10.41
2019-04-25T03:27:40.511Z,10.37
2019-04-25T03:28:40.513Z,10.35
2019-04-25T03:29:40.499Z,10.40
2019-04-25T03:30:40.486Z,10.37
2019-04-25T03:31:40.470Z,10.34
2019-04-25T03:32:40.457Z,10.34
2019-04-25T03:33:40.460Z,10.28
2019-04-25T03:34:40.428Z,10.34
2019-04-25T03:35:40.417Z,10.38
2019-04-25T03:36:40.398Z,10.34
2019-04-25T03:37:40.395Z,10.34
2019-04-25T03:38:40.390Z,10.38
2019-04-25T03:39:40.370Z,10.20
2019-04-25T03:40:40.383Z,10.20
2019-04-25T03:41:40.357Z,10.26
2019-04-25T03:42:40.337Z,10.31
2019-04-25T03:43:40.347Z,10.30
2019-04-25T03:44:40.331Z,10.26
2019-04-25T03:45:40.313Z,10.25
2019-04-25T03:46:40.308Z,10.23
2019-04-25T03:47:40.279Z,10.22
2019-04-25T03:48:40.288Z,10.22
2019-04-25T03:49:40.277Z,10.20
2019-04-25T03:50:40.244Z,10.13
2019-04-25T03:51:40.237Z,10.23
2019-04-25T03:52:40.238Z,10.17
2019-04-25T03:53:40.214Z,10.12
2019-04-25T03:54:40.204Z,10.09
2019-04-25T03:55:40.227Z,10.16
2019-04-25T03:56:49.950Z,10.13
2019-04-25T03:57:41.163Z,10.09
2019-04-25T03:58:40.153Z,10.12
2019-04-25T03:59:40.167Z,10.15
2019-04-25T04:00:40.140Z,10.16
2019-04-25T04:01:40.199Z,10.16
2019-04-25T04:02:40.112Z,10.10
2019-04-25T04:03:40.125Z,10.15
2019-04-25T04:04:40.086Z,10.01
2019-04-25T04:05:40.071Z,10.10
2019-04-25T04:06:40.081Z,10.05
2019-04-25T04:07:40.052Z,10.02
2019-04-25T04:08:40.097Z,9.98
2019-04-25T04:09:40.031Z,9.94
2019-04-25T04:10:40.018Z,10.01
2019-04-25T04:11:40.005Z,10.01
2019-04-25T04:12:40.033Z,10.02
2019-04-25T04:13:39.997Z,10.07
2019-04-25T04:14:40.012Z,9.97
2019-04-25T04:15:39.979Z,10.02
2019-04-25T04:16:39.963Z,10.07
2019-04-25T04:17:39.955Z,9.97
2019-04-25T04:18:39.937Z,10.01
2019-04-25T04:19:39.930Z,10.02
2019-04-25T04:20:39.906Z,10.09
2019-04-25T04:21:39.895Z,10.05
2019-04-25T04:22:39.884Z,10.05
2019-04-25T04:23:39.882Z,10.07
2019-04-25T04:24:39.859Z,9.97
2019-04-25T04:25:39.866Z,9.94
2019-04-25T04:26:39.861Z,9.98
2019-04-25T04:27:39.866Z,9.98
2019-04-25T04:28:39.833Z,10.01
2019-04-25T04:29:39.808Z,9.91
2019-04-25T04:30:39.795Z,9.86
2019-04-25T04:31:39.811Z,9.91
2019-04-25T04:32:39.794Z,9.91
2019-04-25T04:33:39.776Z,9.91
2019-04-25T04:34:39.783Z,9.87
2019-04-25T04:35:39.761Z,9.91
2019-04-25T04:36:39.740Z,9.98
2019-04-25T04:37:39.732Z,9.84
2019-04-25T04:38:39.756Z,9.79
2019-04-25T04:39:39.696Z,9.80
2019-04-25T04:40:39.693Z,9.80
2019-04-25T04:41:39.687Z,9.94
2019-04-25T04:42:39.708Z,9.99
2019-04-25T04:43:39.670Z,9.98
2019-04-25T04:44:39.671Z,9.99
2019-04-25T04:45:39.623Z,9.94
2019-04-25T04:46:39.624Z,9.84
2019-04-25T04:47:39.601Z,9.86
2019-04-25T04:48:39.611Z,9.91
2019-04-25T04:49:39.577Z,9.86
2019-04-25T04:50:39.586Z,9.89
2019-04-25T04:51:39.557Z,9.91
2019-04-25T04:52:39.554Z,9.99
2019-04-25T04:53:39.540Z,9.98
2019-04-25T04:54:39.552Z,9.95
2019-04-25T04:55:39.532Z,10.02
2019-04-25T04:56:39.498Z,10.09
2019-04-25T04:57:39.508Z,10.05
2019-04-25T04:58:39.478Z,10.10
2019-04-25T04:59:39.522Z,10.15
2019-04-25T05:00:39.457Z,10.04
2019-04-25T05:01:39.462Z,10.09
2019-04-25T05:02:39.476Z,10.13
2019-04-25T05:03:39.425Z,10.15
2019-04-25T05:04:39.438Z,10.16
2019-04-25T05:05:39.409Z,10.05
2019-04-25T05:06:39.408Z,10.25
2019-04-25T05:07:39.384Z,10.23
2019-04-25T05:08:39.379Z,10.16
2019-04-25T05:09:39.375Z,10.16
2019-04-25T05:10:39.343Z,10.17
2019-04-25T05:11:39.337Z,10.19
2019-04-25T05:12:39.325Z,10.19
2019-04-25T05:13:39.362Z,10.28
2019-04-25T05:14:39.296Z,10.26
2019-04-25T05:15:39.287Z,10.20
2019-04-25T05:16:39.293Z,10.19
2019-04-25T05:17:39.264Z,10.25
2019-04-25T05:18:40.064Z,10.15
2019-04-25T05:19:39.250Z,10.19
2019-04-25T05:20:39.227Z,10.19
2019-04-25T05:21:39.239Z,10.20
2019-04-25T05:22:39.208Z,10.22
2019-04-25T05:23:39.195Z,10.33
2019-04-25T05:24:39.196Z,10.31
2019-04-25T05:25:39.169Z,10.37
2019-04-25T05:26:39.172Z,10.41
2019-04-25T05:27:56.737Z,10.40
2019-04-25T05:28:40.167Z,10.51
2019-04-25T05:29:39.128Z,10.51
2019-04-25T05:30:39.128Z,10.46
2019-04-25T05:31:39.106Z,10.46
2019-04-25T05:32:39.106Z,10.51
2019-04-25T05:33:39.085Z,10.57
2019-04-25T05:34:39.091Z,10.61
2019-04-25T05:35:39.076Z,10.71
2019-04-25T05:36:39.049Z,10.60
2019-04-25T05:37:39.040Z,10.67
2019-04-25T05:38:39.023Z,10.72
2019-04-25T05:39:39.013Z,10.75
2019-04-25T05:40:39.037Z,10.75
2019-04-25T05:41:39.004Z,10.84
2019-04-25T05:42:38.982Z,10.86
2019-04-25T05:43:38.972Z,10.78
2019-04-25T05:44:38.959Z,10.84
2019-04-25T05:45:38.943Z,11.08
2019-04-25T05:46:38.961Z,11.12
2019-04-25T05:47:38.925Z,11.11
2019-04-25T05:48:38.922Z,11.12
2019-04-25T05:49:38.901Z,11.22
2019-04-25T05:50:38.892Z,11.19
2019-04-25T05:51:38.895Z,11.22
2019-04-25T05:52:38.892Z,11.22
2019-04-25T05:53:38.854Z,11.41
2019-04-25T05:54:38.841Z,11.50
2019-04-25T05:55:38.831Z,11.47
2019-04-25T05:56:38.818Z,11.51
2019-04-25T05:57:47.758Z,11.51
2019-04-25T05:58:39.847Z,11.52
2019-04-25T05:59:38.786Z,11.57
2019-04-25T06:00:38.785Z,11.51
2019-04-25T06:01:38.761Z,11.51
2019-04-25T06:02:38.753Z,11.51
2019-04-25T06:03:38.759Z,11.60
2019-04-25T06:04:38.733Z,11.66
2019-04-25T06:05:38.732Z,11.66
2019-04-25T06:06:38.710Z,11.81
2019-04-25T06:07:38.697Z,11.84
2019-04-25T06:08:38.683Z,12.03
2019-04-25T06:09:38.693Z,12.18
2019-04-25T06:10:38.664Z,12.27
2019-04-25T06:11:38.681Z,12.50
2019-04-25T06:12:38.637Z,12.79
2019-04-25T06:13:38.625Z,13.04
2019-04-25T06:14:38.620Z,13.13
2019-04-25T06:15:38.619Z,13.03
2019-04-25T06:16:38.608Z,13.00
2019-04-25T06:17:38.587Z,13.01
2019-04-25T06:18:38.570Z,12.87
2019-04-25T06:19:38.559Z,12.87
2019-04-25T06:20:38.550Z,12.85
2019-04-25T06:21:38.558Z,12.78
2019-04-25T06:22:38.528Z,12.82
2019-04-25T06:23:38.521Z,12.90
2019-04-25T06:24:38.507Z,13.08
2019-04-25T06:25:39.839Z,13.16
2019-04-25T06:26:39.864Z,12.93
2019-04-25T06:27:38.479Z,12.97
2019-04-25T06:28:49.428Z,12.68
2019-04-25T06:29:39.467Z,12.80
2019-04-25T06:30:38.441Z,12.83
2019-04-25T06:31:38.426Z,13.05
2019-04-25T06:32:38.440Z,13.31
2019-04-25T06:33:38.436Z,13.39
2019-04-25T06:34:38.400Z,13.47
2019-04-25T06:35:38.389Z,13.46
2019-04-25T06:36:38.369Z,13.59
2019-04-25T06:37:38.361Z,13.62
2019-04-25T06:38:38.363Z,13.70
2019-04-25T06:39:38.338Z,13.67
2019-04-25T06:40:38.326Z,13.56
2019-04-25T06:41:38.325Z,13.44
2019-04-25T06:42:38.302Z,13.49
2019-04-25T06:43:38.291Z,13.41
2019-04-25T06:44:38.299Z,13.41
2019-04-25T06:45:38.268Z,13.46
2019-04-25T06:46:38.265Z,13.54
2019-04-25T06:47:38.264Z,13.53
2019-04-25T06:48:38.234Z,13.42
2019-04-25T06:49:38.228Z,13.42
2019-04-25T06:50:38.225Z,13.39
2019-04-25T06:51:38.207Z,13.39
2019-04-25T06:52:38.192Z,13.30
2019-04-25T06:53:38.234Z,13.31
2019-04-25T06:54:38.169Z,13.33
2019-04-25T06:55:46.908Z,13.30
2019-04-25T06:56:38.143Z,13.33
2019-04-25T06:57:38.143Z,13.30
2019-04-25T06:58:38.140Z,13.31
2019-04-25T06:59:41.263Z,13.31
2019-04-25T07:00:42.558Z,13.35
2019-04-25T07:01:39.128Z,13.38
2019-04-25T07:02:38.075Z,13.46
2019-04-25T07:03:38.079Z,13.41
2019-04-25T07:04:38.069Z,13.39
2019-04-25T07:05:40.512Z,13.41
2019-04-25T07:06:38.055Z,13.49
2019-04-25T07:07:38.019Z,13.42
2019-04-25T07:08:38.027Z,13.54
2019-04-25T07:09:38.071Z,13.60
2019-04-25T07:10:37.989Z,13.52
2019-04-25T07:11:37.975Z,13.57
2019-04-25T07:12:37.985Z,13.53
2019-04-25T07:13:38.860Z,13.53
2019-04-25T07:14:37.941Z,13.71
2019-04-25T07:15:37.931Z,13.72
2019-04-25T07:16:37.932Z,13.70
2019-04-25T07:17:37.909Z,13.68
2019-04-25T07:18:37.909Z,13.53
2019-04-25T07:19:37.896Z,13.60
2019-04-25T07:20:37.874Z,13.75
2019-04-25T07:21:37.864Z,13.77
2019-04-25T07:22:37.854Z,13.92
2019-04-25T07:23:38.286Z,13.92
2019-04-25T07:24:37.831Z,14.04
2019-04-25T07:25:37.835Z,14.07
2019-04-25T07:26:39.707Z,14.12
2019-04-25T07:27:37.800Z,14.15
2019-04-25T07:28:37.785Z,14.08
2019-04-25T07:29:37.789Z,14.25
2019-04-25T07:30:48.461Z,14.28
2019-04-25T07:31:38.775Z,14.33
2019-04-25T07:32:37.757Z,14.32
2019-04-25T07:33:37.730Z,14.33
2019-04-25T07:34:37.718Z,14.54
2019-04-25T07:35:37.706Z,14.48
2019-04-25T07:36:37.706Z,14.45
2019-04-25T07:37:41.488Z,14.44
2019-04-25T07:38:37.677Z,14.44
2019-04-25T07:39:37.692Z,14.50
2019-04-25T07:40:37.663Z,14.50
2019-04-25T07:41:38.507Z,14.63
2019-04-25T07:42:37.640Z,14.69
2019-04-25T07:43:37.615Z,14.62
2019-04-25T07:44:49.120Z,14.77
2019-04-25T07:45:38.629Z,14.73
2019-04-25T07:46:39.901Z,14.72
2019-04-25T07:47:37.736Z,14.85
2019-04-25T07:48:38.172Z,14.89
2019-04-25T07:49:37.897Z,15.04
2019-04-25T07:50:37.542Z,14.99
2019-04-25T07:51:37.553Z,15.11
2019-04-25T07:52:37.755Z,15.22
2019-04-25T07:53:37.587Z,15.18
2019-04-25T07:54:38.438Z,15.25
2019-04-25T07:55:38.738Z,15.35
2019-04-25T07:56:37.859Z,15.47
2019-04-25T07:57:37.475Z,15.47
2019-04-25T07:58:48.058Z,15.59
2019-04-25T07:59:38.815Z,15.70
2019-04-25T08:00:37.616Z,15.57
2019-04-25T08:01:38.768Z,15.55
2019-04-25T08:02:37.569Z,15.57
2019-04-25T08:03:37.391Z,15.58
2019-04-25T08:04:38.338Z,15.57
2019-04-25T08:05:37.884Z,15.62
2019-04-25T08:06:37.624Z,15.70
2019-04-25T08:07:37.860Z,15.72
2019-04-25T08:08:38.133Z,15.84
2019-04-25T08:09:37.987Z,15.94
2019-04-25T08:10:38.120Z,15.80
2019-04-25T08:11:38.223Z,15.91
2019-04-25T08:12:37.311Z,15.95
2019-04-25T08:13:37.397Z,15.84
2019-04-25T08:14:37.357Z,15.92
2019-04-25T08:15:37.253Z,15.88
2019-04-25T08:16:37.274Z,15.91
2019-04-25T08:17:38.437Z,15.95
2019-04-25T08:18:37.236Z,15.88
2019-04-25T08:19:37.225Z,16.02
2019-04-25T08:20:37.198Z,16.21
2019-04-25T08:21:37.191Z,16.33
2019-04-25T08:22:50.107Z,16.47
2019-04-25T08:23:38.896Z,16.36
2019-04-25T08:24:37.340Z,16.31
2019-04-25T08:25:39.228Z,16.28
2019-04-25T08:26:37.593Z,16.16
2019-04-25T08:27:37.121Z,16.01
2019-04-25T08:28:50.158Z,15.94
2019-04-25T08:29:39.762Z,15.88
2019-04-25T08:30:38.175Z,15.77
2019-04-25T08:31:37.724Z,15.75
2019-04-25T08:32:37.610Z,15.68
2019-04-25T08:33:37.056Z,15.62
2019-04-25T08:34:37.343Z,15.65
2019-04-25T08:35:38.083Z,15.59
2019-04-25T08:36:38.521Z,15.58
2019-04-25T08:37:37.849Z,15.54
2019-04-25T08:38:36.995Z,15.61
2019-04-25T08:39:38.353Z,15.46
2019-04-25T08:40:37.745Z,15.52
2019-04-25T08:41:37.101Z,15.65
2019-04-25T08:42:37.917Z,15.54
2019-04-25T08:43:39.149Z,15.62
2019-04-25T08:44:37.017Z,15.59
2019-04-25T08:45:37.426Z,15.68
2019-04-25T08:46:38.110Z,15.67
2019-04-25T08:47:37.354Z,15.79
2019-04-25T08:48:37.067Z,15.88
2019-04-25T08:49:36.869Z,15.94
2019-04-25T08:50:39.658Z,16.00
2019-04-25T08:51:37.786Z,15.91
2019-04-25T08:52:37.750Z,16.04
2019-04-25T08:53:36.835Z,16.02
2019-04-25T08:54:40.907Z,16.20
2019-04-25T08:55:38.294Z,16.41
2019-04-25T08:56:37.770Z,16.42
2019-04-25T08:57:36.786Z,16.38
2019-04-25T08:58:36.765Z,16.41
2019-04-25T08:59:42.540Z,16.57
2019-04-25T09:00:38.296Z,16.50
2019-04-25T09:01:39.398Z,16.65
2019-04-25T09:02:38.415Z,16.56
2019-04-25T09:03:36.751Z,16.64
2019-04-25T09:04:36.928Z,16.46
2019-04-25T09:05:37.784Z,16.50
2019-04-25T09:06:37.561Z,16.65
2019-04-25T09:07:37.721Z,16.76
2019-04-25T09:08:38.118Z,16.84
2019-04-25T09:09:37.790Z,16.99
2019-04-25T09:10:38.120Z,17.16
2019-04-25T09:11:38.649Z,17.36
2019-04-25T09:12:37.724Z,17.63
2019-04-25T09:13:38.117Z,17.63
2019-04-25T09:14:37.736Z,17.64
2019-04-25T09:15:37.791Z,17.83
2019-04-25T09:16:36.728Z,18.04
2019-04-25T09:17:37.223Z,18.20
2019-04-25T09:18:37.029Z,18.31
2019-04-25T09:19:37.550Z,18.40
2019-04-25T09:20:39.643Z,18.63
2019-04-25T09:21:37.845Z,18.59
2019-04-25T09:22:37.483Z,18.53
2019-04-25T09:23:37.696Z,18.65
2019-04-25T09:24:37.664Z,18.65
2019-04-25T09:25:36.822Z,18.83
2019-04-25T09:26:37.220Z,18.78
2019-04-25T09:27:39.359Z,18.73
2019-04-25T09:28:38.034Z,18.47
2019-04-25T09:29:36.756Z,18.35
2019-04-25T09:30:37.096Z,18.25
2019-04-25T09:31:37.580Z,18.41
2019-04-25T09:32:37.220Z,18.44
2019-04-25T09:33:37.171Z,18.38
2019-04-25T09:34:36.362Z,18.23
2019-04-25T09:35:36.400Z,17.95
2019-04-25T09:36:36.351Z,17.70
2019-04-25T09:37:36.744Z,17.67
2019-04-25T09:38:36.930Z,17.65
2019-04-25T09:39:36.889Z,17.65
2019-04-25T09:40:37.235Z,17.64
2019-04-25T09:41:36.290Z,17.72
2019-04-25T09:42:36.989Z,17.70
2019-04-25T09:43:37.263Z,17.68
2019-04-25T09:44:38.019Z,17.60
2019-04-25T09:45:36.244Z,17.57
2019-04-25T09:46:37.256Z,17.46
2019-04-25T09:47:37.097Z,17.68
2019-04-25T09:48:36.614Z,17.68
2019-04-25T09:49:36.874Z,17.74
2019-04-25T09:50:38.215Z,17.83
2019-04-25T09:51:36.177Z,17.95
2019-04-25T09:52:36.164Z,17.95
2019-04-25T09:53:42.393Z,18.00
2019-04-25T09:54:38.034Z,17.72
2019-04-25T09:55:36.157Z,17.60
2019-04-25T09:56:36.639Z,17.76
2019-04-25T09:57:36.371Z,17.52
2019-04-25T09:58:36.563Z,17.46
2019-04-25T09:59:37.395Z,17.36
2019-04-25T10:00:36.537Z,17.44
2019-04-25T10:01:36.550Z,17.38
2019-04-25T10:02:36.907Z,17.26
2019-04-25T10:03:36.695Z,17.16
2019-04-25T10:04:36.923Z,17.15
2019-04-25T10:05:36.921Z,17.20
2019-04-25T10:06:37.163Z,17.36
2019-04-25T10:07:36.251Z,17.48
2019-04-25T10:08:36.896Z,17.71
2019-04-25T10:09:36.000Z,17.70
2019-04-25T10:10:35.965Z,17.72
2019-04-25T10:11:35.963Z,17.86
2019-04-25T10:12:37.233Z,17.87
2019-04-25T10:13:35.938Z,17.87
2019-04-25T10:14:37.507Z,17.83
2019-04-25T10:15:37.459Z,17.72
2019-04-25T10:16:35.934Z,17.90
2019-04-25T10:17:37.586Z,18.03
2019-04-25T10:18:35.879Z,18.04
2019-04-25T10:19:35.874Z,18.18
2019-04-25T10:20:35.851Z,18.33
2019-04-25T10:21:35.859Z,18.41
2019-04-25T10:22:35.846Z,18.33
2019-04-25T10:23:35.853Z,18.37
2019-04-25T10:24:35.817Z,18.33
2019-04-25T10:25:35.794Z,18.44
2019-04-25T10:26:35.788Z,18.38
2019-04-25T10:27:35.787Z,18.50
2019-04-25T10:28:35.762Z,18.66
2019-04-25T10:29:42.942Z,18.78
2019-04-25T10:30:36.739Z,18.95
2019-04-25T10:31:35.748Z,19.19
2019-04-25T10:32:35.733Z,19.45
2019-04-25T10:33:35.722Z,19.33
2019-04-25T10:34:35.699Z,19.24
2019-04-25T10:35:46.663Z,19.26
2019-04-25T10:36:39.824Z,19.30
2019-04-25T10:37:35.659Z,19.02
2019-04-25T10:38:35.719Z,19.00
2019-04-25T10:39:35.640Z,19.18
2019-04-25T10:40:35.653Z,19.26
2019-04-25T10:41:35.952Z,19.24
2019-04-25T10:42:35.618Z,19.37
2019-04-25T10:43:35.603Z,19.44
2019-04-25T10:44:35.613Z,19.64
2019-04-25T10:45:35.569Z,19.51
2019-04-25T10:46:35.562Z,19.24
2019-04-25T10:47:35.559Z,18.92
2019-04-25T10:48:35.544Z,18.71
2019-04-25T10:49:35.562Z,18.52
2019-04-25T10:50:35.531Z,18.43
2019-04-25T10:51:35.527Z,18.44
2019-04-25T10:52:35.492Z,18.66
2019-04-25T10:53:35.485Z,18.99
2019-04-25T10:54:35.469Z,19.15
2019-04-25T10:55:35.477Z,19.02
2019-04-25T10:56:35.472Z,19.00
2019-04-25T10:57:35.441Z,19.04
2019-04-25T10:58:35.441Z,19.14
2019-04-25T10:59:35.433Z,19.31
2019-04-25T11:00:35.411Z,19.45
2019-04-25T11:01:35.410Z,19.55
2019-04-25T11:02:35.389Z,19.84
2019-04-25T11:03:35.385Z,19.82
2019-04-25T11:04:35.363Z,20.06
2019-04-25T11:05:35.362Z,20.11
2019-04-25T11:06:35.334Z,20.25
2019-04-25T11:07:35.338Z,20.39
2019-04-25T11:08:35.319Z,20.52
2019-04-25T11:09:35.316Z,20.60
2019-04-25T11:10:35.290Z,20.51
2019-04-25T11:11:35.281Z,20.36
2019-04-25T11:12:35.285Z,20.59
2019-04-25T11:13:35.527Z,20.66
2019-04-25T11:14:35.249Z,20.72
2019-04-25T11:15:35.238Z,20.92
2019-04-25T11:16:35.224Z,20.84
2019-04-25T11:17:35.235Z,20.63
2019-04-25T11:18:35.246Z,20.36
2019-04-25T11:19:37.277Z,20.21
2019-04-25T11:20:35.182Z,20.24
2019-04-25T11:21:35.168Z,20.07
2019-04-25T11:22:35.159Z,20.03
2019-04-25T11:23:35.164Z,19.71
2019-04-25T11:24:35.134Z,19.44
2019-04-25T11:25:35.124Z,19.47
2019-04-25T11:26:35.110Z,19.24
2019-04-25T11:27:35.104Z,19.15
2019-04-25T11:28:35.089Z,19.00
2019-04-25T11:29:35.097Z,19.00
2019-04-25T11:30:35.064Z,19.07
2019-04-25T11:31:35.054Z,18.89
2019-04-25T11:32:35.058Z,18.80
2019-04-25T11:33:35.035Z,18.71
2019-04-25T11:34:35.020Z,18.81
2019-04-25T11:35:35.026Z,18.86
2019-04-25T11:36:35.003Z,18.84
2019-04-25T11:37:34.987Z,18.58
2019-04-25T11:38:34.978Z,18.41
2019-04-25T11:39:34.969Z,18.37
2019-04-25T11:40:34.953Z,18.43
2019-04-25T11:41:34.957Z,18.53
2019-04-25T11:42:34.937Z,18.62
2019-04-25T11:43:35.670Z,18.74
2019-04-25T11:44:35.075Z,19.00
2019-04-25T11:45:34.906Z,19.33
2019-04-25T11:46:34.887Z,19.48
2019-04-25T11:47:34.897Z,19.89
2019-04-25T11:48:34.875Z,19.91
2019-04-25T11:49:34.854Z,20.02
2019-04-25T11:50:36.986Z,20.09
2019-04-25T11:51:34.829Z,20.21
2019-04-25T11:52:34.850Z,20.28
2019-04-25T11:53:34.824Z,20.16
2019-04-25T11:54:34.814Z,20.34
2019-04-25T11:55:34.785Z,20.50
2019-04-25T11:56:34.778Z,20.58
2019-04-25T11:57:34.765Z,20.74
2019-04-25T11:58:34.782Z,20.92
2019-04-25T11:59:34.762Z,20.99
2019-04-25T12:00:34.729Z,20.88
2019-04-25T12:01:34.731Z,20.87
2019-04-25T12:02:34.719Z,20.97
2019-04-25T12:03:34.694Z,21.27
2019-04-25T12:04:34.697Z,21.15
2019-04-25T12:05:34.673Z,21.29
2019-04-25T12:06:34.659Z,21.20
2019-04-25T12:07:34.648Z,21.09
2019-04-25T12:08:34.702Z,20.97
2019-04-25T12:09:34.645Z,20.97
2019-04-25T12:10:34.723Z,20.81
2019-04-25T12:11:34.600Z,20.65
2019-04-25T12:12:36.970Z,20.58
2019-04-25T12:13:34.601Z,20.52
2019-04-25T12:14:34.600Z,20.47
2019-04-25T12:15:34.570Z,20.47
2019-04-25T12:16:34.551Z,20.40
2019-04-25T12:17:35.258Z,20.40
2019-04-25T12:18:35.445Z,20.41
2019-04-25T12:19:37.897Z,20.40
2019-04-25T12:20:34.506Z,20.44
2019-04-25T12:21:34.526Z,20.56
2019-04-25T12:22:34.496Z,20.87
2019-04-25T12:23:34.485Z,21.24
2019-04-25T12:24:34.453Z,21.20
2019-04-25T12:25:34.442Z,21.39
2019-04-25T12:26:34.439Z,21.43
2019-04-25T12:27:34.420Z,21.67
2019-04-25T12:28:34.418Z,21.61
2019-04-25T12:29:34.397Z,21.67
2019-04-25T12:30:38.304Z,21.69
2019-04-25T12:31:35.376Z,21.51
2019-04-25T12:32:35.300Z,21.55
2019-04-25T12:33:34.378Z,21.40
2019-04-25T12:34:34.350Z,21.15
2019-04-25T12:35:34.330Z,20.95
2019-04-25T12:36:34.324Z,20.95
2019-04-25T12:37:34.322Z,20.58
2019-04-25T12:38:35.419Z,20.48
2019-04-25T12:39:34.318Z,20.41
2019-04-25T12:40:34.409Z,20.34
2019-04-25T12:41:34.272Z,20.22
2019-04-25T12:42:34.415Z,20.11
2019-04-25T12:43:34.238Z,20.07
2019-04-25T12:44:34.260Z,20.07
2019-04-25T12:45:34.367Z,20.18
2019-04-25T12:46:34.852Z,20.21
2019-04-25T12:47:34.428Z,20.43
2019-04-25T12:48:34.206Z,20.43
2019-04-25T12:49:34.519Z,20.47
2019-04-25T12:50:34.178Z,20.43
2019-04-25T12:51:34.167Z,20.62
2019-04-25T12:52:34.138Z,20.96
2019-04-25T12:53:35.150Z,21.20